createdAt,value
2022-11-20T00:00:46.307Z,19.26
2022-11-20T00:03:14.756Z,19.34
2022-11-20T00:05:42.698Z,19.37
2022-11-20T00:08:10.651Z,19.33
2022-11-20T00:10:38.676Z,19.38
2022-11-20T00:13:08.407Z,19.31
2022-11-20T00:15:36.343Z,19.28
2022-11-20T00:18:04.294Z,19.29
2022-11-20T00:20:32.249Z,19.37
2022-11-20T00:23:00.188Z,19.37
2022-11-20T00:25:28.144Z,19.53
2022-11-20T00:27:56.094Z,19.48
2022-11-20T00:30:25.424Z,19.47
2022-11-20T00:32:53.344Z,19.50
2022-11-20T00:35:21.257Z,19.43
2022-11-20T00:37:49.212Z,19.39
2022-11-20T00:40:17.308Z,19.44
2022-11-20T00:42:45.217Z,19.51
2022-11-20T00:45:13.121Z,19.46
2022-11-20T00:47:42.445Z,19.49
2022-11-20T00:50:11.075Z,19.46
2022-11-20T00:52:39.026Z,19.38
2022-11-20T00:55:07.893Z,19.43
2022-11-20T00:57:35.821Z,19.38
2022-11-20T01:00:03.835Z,19.39
2022-11-20T01:02:31.780Z,19.32
2022-11-20T01:05:01.109Z,19.34
2022-11-20T01:07:29.113Z,19.34
2022-11-20T01:09:57.090Z,19.25
2022-11-20T01:12:25.055Z,19.31
2022-11-20T01:14:52.989Z,19.43
2022-11-20T01:17:20.945Z,19.56
2022-11-20T01:19:51.046Z,19.50
2022-11-20T01:22:20.325Z,19.55
2022-11-20T01:24:48.263Z,19.56
2022-11-20T01:27:16.221Z,19.61
2022-11-20T01:29:44.108Z,19.62
2022-11-20T01:32:12.021Z,19.62
2022-11-20T01:34:39.935Z,19.58
2022-11-20T01:37:07.865Z,19.47
2022-11-20T01:39:37.131Z,19.48
2022-11-20T01:42:22.844Z,19.59
2022-11-20T01:44:53.421Z,19.53
2022-11-20T01:47:24.455Z,19.55
2022-11-20T01:49:53.574Z,19.70
2022-11-20T01:52:22.433Z,19.69
2022-11-20T01:54:55.020Z,19.72
2022-11-20T01:57:22.998Z,19.71
2022-11-20T01:59:52.937Z,19.69
2022-11-20T02:02:20.846Z,19.77
2022-11-20T02:04:48.894Z,19.71
2022-11-20T02:07:16.913Z,19.67
2022-11-20T02:09:44.893Z,19.77
2022-11-20T02:12:34.177Z,19.68
2022-11-20T02:15:01.087Z,19.56
2022-11-20T02:17:29.031Z,19.59
2022-11-20T02:19:57.032Z,19.56
2022-11-20T02:22:27.969Z,19.62
2022-11-20T02:24:57.281Z,19.61
2022-11-20T02:27:25.198Z,19.67
2022-11-20T02:29:54.106Z,19.63
2022-11-20T02:32:22.191Z,19.64
2022-11-20T02:34:50.142Z,19.65
2022-11-20T02:37:18.030Z,19.70
2022-11-20T02:39:46.213Z,19.66
2022-11-20T02:42:15.511Z,19.66
2022-11-20T02:44:43.454Z,19.65
2022-11-20T02:47:11.449Z,19.64
2022-11-20T02:49:39.601Z,19.57
2022-11-20T02:52:07.561Z,19.54
2022-11-20T02:54:35.498Z,19.55
2022-11-20T02:57:03.471Z,19.52
2022-11-20T02:59:32.738Z,19.44
2022-11-20T03:02:00.702Z,19.44
2022-11-20T03:04:28.644Z,19.44
2022-11-20T03:06:56.682Z,19.40
2022-11-20T03:09:24.736Z,19.47
2022-11-20T03:11:52.714Z,19.37
2022-11-20T03:14:20.679Z,19.30
2022-11-20T03:16:49.994Z,19.34
2022-11-20T03:19:18.007Z,19.33
2022-11-20T03:21:46.062Z,19.36
2022-11-20T03:24:14.667Z,19.29
2022-11-20T03:26:42.621Z,19.28
2022-11-20T03:29:10.605Z,19.18
2022-11-20T03:31:41.274Z,19.20
2022-11-20T03:34:10.973Z,19.27
2022-11-20T03:36:39.752Z,19.22
2022-11-20T03:39:07.809Z,19.22
2022-11-20T03:41:38.361Z,19.24
2022-11-20T03:44:07.864Z,19.36
2022-11-20T03:46:35.810Z,19.27
2022-11-20T03:49:03.848Z,19.18
2022-11-20T03:51:33.763Z,19.27
2022-11-20T03:54:02.633Z,19.23
2022-11-20T03:56:31.369Z,19.26
2022-11-20T03:58:59.290Z,19.18
2022-11-20T04:01:28.437Z,19.26
2022-11-20T04:03:57.002Z,19.26
2022-11-20T04:06:25.687Z,19.20
2022-11-20T04:08:56.116Z,19.21
2022-11-20T04:11:25.694Z,19.19
2022-11-20T04:13:54.307Z,19.21
2022-11-20T04:16:22.335Z,19.19
2022-11-20T04:18:53.996Z,19.21
2022-11-20T04:21:21.968Z,19.19
2022-11-20T04:23:49.932Z,19.20
2022-11-20T04:26:19.285Z,19.21
2022-11-20T04:28:47.276Z,19.22
2022-11-20T04:31:16.071Z,19.23
2022-11-20T04:33:44.060Z,19.21
2022-11-20T04:36:13.045Z,19.23
2022-11-20T04:38:41.071Z,19.27
2022-11-20T04:41:10.021Z,19.26
2022-11-20T04:43:39.370Z,19.25
2022-11-20T04:46:07.432Z,19.23
2022-11-20T04:48:36.637Z,19.29
2022-11-20T04:51:05.275Z,19.22
2022-11-20T04:53:33.321Z,19.29
2022-11-20T04:56:04.659Z,19.25
2022-11-20T04:58:32.565Z,19.36
2022-11-20T05:01:05.271Z,19.32
2022-11-20T05:03:33.287Z,19.30
2022-11-20T05:06:02.453Z,19.26
2022-11-20T05:08:30.393Z,19.32
2022-11-20T05:11:02.392Z,19.33
2022-11-20T05:13:30.322Z,19.37
2022-11-20T05:16:03.930Z,19.36
2022-11-20T05:18:32.073Z,19.32
2022-11-20T05:21:00.238Z,19.37
2022-11-20T05:23:28.304Z,19.36
2022-11-20T05:25:59.071Z,19.35
2022-11-20T05:28:27.548Z,19.30
2022-11-20T05:30:55.548Z,19.31
2022-11-20T05:33:24.899Z,19.27
2022-11-20T05:35:52.831Z,19.31
2022-11-20T05:38:20.809Z,19.32
2022-11-20T05:40:48.725Z,19.32
2022-11-20T05:43:16.684Z,19.28
2022-11-20T05:45:44.639Z,19.26
2022-11-20T05:48:12.590Z,19.27
2022-11-20T05:50:41.858Z,19.27
2022-11-20T05:53:09.781Z,19.30
2022-11-20T05:55:37.725Z,19.33
2022-11-20T05:58:05.702Z,18.69
2022-11-20T06:00:33.674Z,18.23
2022-11-20T06:03:01.707Z,17.80
2022-11-20T06:05:29.638Z,17.34
2022-11-20T06:07:58.987Z,16.80
2022-11-20T06:10:26.981Z,15.99
2022-11-20T06:12:54.950Z,15.74
2022-11-20T06:15:22.973Z,15.51
2022-11-20T06:17:54.304Z,15.22
2022-11-20T06:20:22.245Z,14.49
2022-11-20T06:22:50.201Z,14.12
2022-11-20T06:25:19.553Z,13.92
2022-11-20T06:27:47.485Z,13.58
2022-11-20T06:30:15.550Z,13.46
2022-11-20T06:32:43.665Z,13.20
2022-11-20T06:35:12.270Z,13.01
2022-11-20T06:37:40.250Z,12.78
2022-11-20T06:40:09.615Z,12.64
2022-11-20T06:42:38.911Z,12.62
2022-11-20T06:45:07.634Z,12.40
2022-11-20T06:47:35.530Z,12.42
2022-11-20T06:50:03.573Z,12.36
2022-11-20T06:52:31.532Z,12.23
2022-11-20T06:54:59.520Z,12.35
2022-11-20T06:57:27.480Z,12.46
2022-11-20T06:59:57.090Z,12.51
2022-11-20T07:02:25.024Z,12.52
2022-11-20T07:04:52.960Z,12.57
2022-11-20T07:07:20.992Z,12.49
2022-11-20T07:09:48.953Z,12.46
2022-11-20T07:12:17.109Z,12.67
2022-11-20T07:14:45.072Z,12.94
2022-11-20T07:17:14.429Z,12.92
2022-11-20T07:19:43.873Z,12.75
2022-11-20T07:22:11.827Z,12.73
2022-11-20T07:24:44.609Z,12.64
2022-11-20T07:27:13.870Z,12.68
2022-11-20T07:29:41.871Z,12.43
2022-11-20T07:32:09.802Z,12.39
2022-11-20T07:34:39.124Z,12.02
2022-11-20T07:37:10.341Z,12.18
2022-11-20T07:39:38.611Z,11.99
2022-11-20T07:42:06.655Z,11.80
2022-11-20T07:44:34.632Z,11.82
2022-11-20T07:47:02.841Z,11.70
2022-11-20T07:49:30.804Z,11.67
2022-11-20T07:52:04.487Z,11.61
2022-11-20T07:54:33.179Z,11.83
2022-11-20T07:57:01.087Z,11.69
2022-11-20T07:59:29.065Z,11.69
2022-11-20T08:01:57.299Z,11.75
2022-11-20T08:04:25.472Z,11.61
2022-11-20T08:06:54.333Z,11.53
2022-11-20T08:09:23.761Z,11.60
2022-11-20T08:12:09.116Z,11.69
2022-11-20T08:14:37.231Z,11.64
2022-11-20T08:17:05.121Z,11.64
2022-11-20T08:19:33.052Z,11.68
2022-11-20T08:22:00.971Z,11.65
2022-11-20T08:24:30.296Z,11.68
2022-11-20T08:26:59.649Z,11.73
2022-11-20T08:29:28.317Z,11.70
2022-11-20T08:31:56.246Z,11.61
2022-11-20T08:34:24.223Z,11.61
2022-11-20T08:36:52.210Z,11.44
2022-11-20T08:39:20.534Z,11.58
2022-11-20T08:41:50.009Z,11.57
2022-11-20T08:44:17.972Z,11.60
2022-11-20T08:46:46.843Z,11.59
2022-11-20T08:49:15.111Z,11.52
2022-11-20T08:51:43.171Z,11.50
2022-11-20T08:54:11.096Z,11.44
2022-11-20T08:56:39.066Z,11.41
2022-11-20T08:59:43.843Z,11.48
2022-11-20T09:01:56.420Z,11.49
2022-11-20T09:04:24.367Z,11.53
2022-11-20T09:06:52.367Z,11.62
2022-11-20T09:09:20.937Z,11.59
2022-11-20T09:11:50.969Z,11.51
2022-11-20T09:14:20.314Z,11.42
2022-11-20T09:16:48.277Z,11.50
2022-11-20T09:22:04.207Z,11.62
2022-11-20T09:24:32.171Z,11.62
2022-11-20T09:27:00.128Z,11.59
2022-11-20T09:29:29.452Z,11.67
2022-11-20T09:31:57.397Z,11.76
2022-11-20T09:34:25.330Z,11.78
2022-11-20T09:36:53.311Z,11.89
2022-11-20T09:39:21.563Z,12.02
2022-11-20T09:42:05.827Z,12.09
2022-11-20T09:44:52.608Z,12.14
2022-11-20T09:47:25.207Z,12.32
2022-11-20T09:50:00.742Z,12.54
2022-11-20T09:52:33.271Z,12.60
2022-11-20T09:55:01.390Z,12.79
2022-11-20T09:57:38.524Z,12.88
2022-11-20T10:00:12.141Z,13.07
2022-11-20T10:02:43.119Z,12.85
2022-11-20T10:05:13.455Z,13.07
2022-11-20T10:07:43.737Z,13.15
2022-11-20T10:10:16.695Z,13.31
2022-11-20T10:12:53.804Z,13.19
2022-11-20T10:15:30.747Z,13.43
2022-11-20T10:18:08.300Z,13.61
2022-11-20T10:20:41.529Z,13.62
2022-11-20T10:23:25.831Z,13.67
2022-11-20T10:25:56.828Z,13.81
2022-11-20T10:28:30.157Z,13.75
2022-11-20T10:31:02.132Z,13.75
2022-11-20T10:33:49.952Z,13.87
2022-11-20T10:36:22.914Z,13.89
2022-11-20T10:38:52.379Z,13.93
2022-11-20T10:41:26.403Z,13.87
2022-11-20T10:43:56.189Z,14.03
2022-11-20T10:46:25.554Z,14.11
2022-11-20T10:48:53.513Z,14.20
2022-11-20T10:51:29.980Z,14.03
2022-11-20T10:54:00.996Z,14.06
2022-11-20T10:56:33.374Z,14.29
2022-11-20T10:59:07.253Z,14.30
2022-11-20T11:01:42.216Z,14.21
2022-11-20T11:04:17.978Z,14.16
2022-11-20T11:06:47.725Z,14.18
2022-11-20T11:09:17.977Z,14.05
2022-11-20T11:11:45.952Z,14.06
2022-11-20T11:14:14.678Z,14.05
2022-11-20T11:16:52.948Z,14.18
2022-11-20T11:19:20.999Z,14.18
2022-11-20T11:21:55.007Z,14.27
2022-11-20T11:24:41.567Z,14.33
2022-11-20T11:27:17.342Z,14.30
2022-11-20T11:29:45.669Z,14.28
2022-11-20T11:32:16.030Z,14.25
2022-11-20T11:34:43.949Z,14.17
2022-11-20T11:37:15.042Z,14.22
2022-11-20T11:39:43.268Z,14.24
2022-11-20T11:42:12.944Z,14.19
2022-11-20T11:44:58.360Z,14.23
2022-11-20T11:47:28.454Z,14.21
2022-11-20T11:50:03.843Z,14.22
2022-11-20T11:52:31.829Z,14.09
2022-11-20T11:55:00.714Z,13.95
2022-11-20T11:57:31.119Z,13.96
2022-11-20T12:00:03.155Z,13.81
2022-11-20T12:02:38.557Z,13.60
2022-11-20T12:05:12.878Z,13.54
2022-11-20T12:07:47.139Z,13.36
2022-11-20T12:10:19.169Z,13.35
2022-11-20T12:12:48.868Z,13.27
2022-11-20T12:15:27.307Z,13.21
2022-11-20T12:17:56.716Z,13.00
2022-11-20T12:20:25.104Z,12.93
2022-11-20T12:22:55.905Z,12.92
2022-11-20T12:25:25.010Z,12.77
2022-11-20T12:28:16.819Z,12.89
2022-11-20T12:30:51.397Z,13.03
2022-11-20T12:33:31.886Z,13.09
2022-11-20T12:36:10.120Z,13.19
2022-11-20T12:39:13.219Z,13.16
2022-11-20T12:42:28.485Z,13.15
2022-11-20T12:45:23.785Z,13.34
2022-11-20T12:48:02.105Z,13.22
2022-11-20T12:50:53.429Z,12.97
2022-11-20T12:53:28.200Z,12.98
2022-11-20T12:55:59.050Z,12.85
2022-11-20T12:58:30.142Z,12.92
2022-11-20T13:01:00.308Z,12.98
2022-11-20T13:03:44.778Z,13.02
2022-11-20T13:06:18.769Z,12.95
2022-11-20T13:08:50.305Z,12.85
2022-11-20T13:11:21.160Z,12.88
2022-11-20T13:14:01.618Z,12.88
2022-11-20T13:16:33.181Z,12.91
2022-11-20T13:19:03.922Z,12.84
2022-11-20T13:21:39.602Z,12.87
2022-11-20T13:24:07.953Z,12.88
2022-11-20T13:26:35.917Z,12.82
2022-11-20T13:29:06.959Z,12.77
2022-11-20T13:31:36.163Z,12.71
2022-11-20T13:34:05.335Z,12.64
2022-11-20T13:36:33.613Z,12.64
2022-11-20T13:39:02.987Z,12.52
2022-11-20T13:41:32.573Z,12.49
2022-11-20T13:44:06.458Z,12.37
2022-11-20T13:46:40.650Z,12.19
2022-11-20T13:49:10.281Z,12.21
2022-11-20T13:51:42.552Z,12.01
2022-11-20T13:54:32.949Z,12.09
2022-11-20T13:57:06.215Z,12.12
2022-11-20T13:59:48.626Z,12.10
2022-11-20T14:02:18.086Z,12.04
2022-11-20T14:04:48.158Z,11.96
2022-11-20T14:07:16.280Z,11.99
2022-11-20T14:09:53.837Z,12.00
2022-11-20T14:12:22.610Z,12.03
2022-11-20T14:14:51.090Z,12.02
2022-11-20T14:17:20.736Z,12.03
2022-11-20T14:19:49.358Z,11.96
2022-11-20T14:22:22.219Z,11.89
2022-11-20T14:24:50.436Z,11.74
2022-11-20T14:27:20.724Z,11.99
2022-11-20T14:29:49.336Z,12.05
2022-11-20T14:32:18.507Z,12.14
2022-11-20T14:34:47.771Z,12.06
2022-11-20T14:37:19.770Z,11.98
2022-11-20T14:39:51.312Z,11.84
2022-11-20T14:42:21.432Z,11.75
2022-11-20T14:44:50.009Z,11.65
2022-11-20T14:47:20.872Z,11.39
2022-11-20T14:49:48.794Z,11.42
2022-11-20T14:52:18.206Z,11.45
2022-11-20T14:54:46.984Z,11.46
2022-11-20T14:57:27.573Z,11.42
2022-11-20T15:00:07.205Z,11.44
2022-11-20T15:02:35.172Z,11.46
2022-11-20T15:05:04.292Z,11.44
2022-11-20T15:07:33.535Z,11.35
2022-11-20T15:10:02.790Z,11.41
2022-11-20T15:12:32.406Z,11.42
2022-11-20T15:15:01.033Z,11.37
2022-11-20T15:17:28.967Z,11.41
2022-11-20T15:19:56.970Z,11.51
2022-11-20T15:22:24.952Z,11.57
2022-11-20T15:24:52.888Z,11.64
2022-11-20T15:27:20.856Z,11.67
2022-11-20T15:29:50.545Z,11.74
2022-11-20T15:32:18.466Z,11.75
2022-11-20T15:34:46.447Z,11.84
2022-11-20T15:37:14.386Z,11.85
2022-11-20T15:39:42.338Z,11.89
2022-11-20T15:42:10.272Z,11.89
2022-11-20T15:44:38.178Z,11.91
2022-11-20T15:47:07.490Z,11.95
2022-11-20T15:49:35.513Z,11.98
2022-11-20T15:52:03.492Z,12.02
2022-11-20T15:54:31.420Z,11.95
2022-11-20T15:57:00.246Z,11.96
2022-11-20T15:59:28.189Z,11.97
2022-11-20T16:01:56.235Z,11.91
2022-11-20T16:04:26.145Z,11.93
2022-11-20T16:06:54.255Z,11.90
2022-11-20T16:09:22.194Z,11.85
2022-11-20T16:11:50.156Z,11.79
2022-11-20T16:14:35.483Z,11.66
2022-11-20T16:17:03.686Z,11.55
2022-11-20T16:19:32.971Z,11.50
2022-11-20T16:22:03.142Z,11.58
2022-11-20T16:24:31.309Z,11.54
2022-11-20T16:26:59.359Z,11.58
2022-11-20T16:29:27.264Z,11.61
2022-11-20T16:31:55.218Z,11.56
2022-11-20T16:34:23.219Z,11.50
2022-11-20T16:36:52.564Z,11.61
2022-11-20T16:39:23.863Z,11.51
2022-11-20T16:41:51.981Z,11.47
2022-11-20T16:44:19.927Z,11.50
2022-11-20T16:46:47.881Z,11.54
2022-11-20T16:49:15.809Z,11.64
2022-11-20T16:51:43.950Z,11.67
2022-11-20T16:54:17.950Z,11.73
2022-11-20T16:56:48.657Z,11.76
2022-11-20T16:59:16.676Z,11.77
2022-11-20T17:01:44.643Z,11.77
2022-11-20T17:04:12.663Z,11.79
2022-11-20T17:06:44.252Z,11.79
2022-11-20T17:09:13.950Z,11.79
2022-11-20T17:11:41.940Z,11.79
2022-11-20T17:14:10.016Z,11.77
2022-11-20T17:16:38.095Z,11.85
2022-11-20T17:19:06.342Z,11.93
2022-11-20T17:21:35.949Z,11.94
2022-11-20T17:24:04.266Z,11.97
2022-11-20T17:26:33.696Z,11.97
2022-11-20T17:29:04.705Z,12.01
2022-11-20T17:31:33.392Z,12.04
2022-11-20T17:34:01.725Z,12.07
2022-11-20T17:36:29.947Z,12.09
2022-11-20T17:38:57.910Z,12.11
2022-11-20T17:41:26.975Z,12.11
2022-11-20T17:43:56.556Z,12.09
2022-11-20T17:46:25.945Z,11.92
2022-11-20T17:48:53.903Z,11.86
2022-11-20T17:51:22.647Z,11.84
2022-11-20T17:53:51.746Z,11.85
2022-11-20T17:56:37.308Z,11.78
2022-11-20T17:59:07.231Z,11.78
2022-11-20T18:01:35.231Z,11.72
2022-11-20T18:04:03.472Z,11.68
2022-11-20T18:06:31.586Z,11.69
2022-11-20T18:08:59.617Z,11.75
2022-11-20T18:11:29.158Z,11.72
2022-11-20T18:14:16.513Z,11.76
2022-11-20T18:16:47.282Z,11.75
2022-11-20T18:19:16.223Z,11.74
2022-11-20T18:21:44.196Z,11.74
2022-11-20T18:24:12.292Z,11.75
2022-11-20T18:26:44.231Z,11.75
2022-11-20T18:29:12.867Z,11.76
2022-11-20T18:31:40.799Z,11.75
2022-11-20T18:34:12.985Z,11.78
2022-11-20T18:36:40.962Z,11.78
2022-11-20T18:39:08.958Z,11.87
2022-11-20T18:41:54.024Z,11.91
2022-11-20T18:44:40.154Z,11.85
2022-11-20T18:47:14.071Z,11.90
2022-11-20T18:49:46.266Z,11.90
2022-11-20T18:52:14.271Z,11.91
2022-11-20T18:54:42.289Z,11.91
2022-11-20T18:57:14.496Z,11.86
2022-11-20T18:59:43.660Z,11.84
2022-11-20T19:02:12.377Z,11.85
2022-11-20T19:04:40.355Z,11.80
2022-11-20T19:07:12.044Z,11.79
2022-11-20T19:09:40.306Z,11.83
2022-11-20T19:12:08.929Z,11.86
2022-11-20T19:14:36.975Z,11.81
2022-11-20T19:17:05.056Z,11.79
2022-11-20T19:19:33.100Z,11.75
2022-11-20T19:22:01.046Z,11.72
2022-11-20T19:24:30.438Z,11.67
2022-11-20T19:26:58.452Z,11.63
2022-11-20T19:29:27.071Z,11.58
2022-11-20T19:31:55.248Z,11.53
2022-11-20T19:34:23.414Z,11.46
2022-11-20T19:36:51.371Z,11.42
2022-11-20T19:39:19.312Z,11.39
2022-11-20T19:41:48.576Z,11.35
2022-11-20T19:44:17.075Z,11.28
2022-11-20T19:46:45.194Z,11.27
2022-11-20T19:49:14.196Z,11.23
2022-11-20T19:51:46.517Z,11.03
2022-11-20T19:54:14.470Z,11.05
2022-11-20T19:56:42.415Z,11.00
2022-11-20T19:59:11.689Z,11.03
2022-11-20T20:01:39.707Z,11.02
2022-11-20T20:04:07.772Z,11.01
2022-11-20T20:06:36.651Z,11.03
2022-11-20T20:09:05.869Z,11.03
2022-11-20T20:11:34.132Z,11.01
2022-11-20T20:14:02.518Z,11.03
2022-11-20T20:16:31.804Z,11.06
2022-11-20T20:19:01.319Z,11.15
2022-11-20T20:21:30.576Z,11.25
2022-11-20T20:23:58.949Z,11.29
2022-11-20T20:26:28.003Z,11.30
2022-11-20T20:28:55.968Z,11.31
2022-11-20T20:31:24.581Z,11.29
2022-11-20T20:33:53.911Z,11.24
2022-11-20T20:36:22.762Z,11.17
2022-11-20T20:38:53.123Z,11.08
2022-11-20T20:41:21.182Z,11.03
2022-11-20T20:44:06.651Z,11.00
2022-11-20T20:46:34.634Z,10.97
2022-11-20T20:49:03.960Z,10.95
2022-11-20T20:51:31.916Z,10.93
2022-11-20T20:53:59.872Z,10.93
2022-11-20T20:56:27.891Z,10.94
2022-11-20T20:58:55.849Z,10.96
2022-11-20T21:01:28.534Z,10.98
2022-11-20T21:03:56.838Z,10.95
2022-11-20T21:06:26.267Z,10.99
2022-11-20T21:08:55.960Z,10.96
2022-11-20T21:11:23.912Z,10.95
2022-11-20T21:13:52.234Z,10.98
2022-11-20T21:16:20.614Z,11.01
2022-11-20T21:18:48.591Z,11.04
2022-11-20T21:21:34.270Z,11.05
2022-11-20T21:24:03.569Z,11.08
2022-11-20T21:26:31.488Z,11.05
2022-11-20T21:28:59.434Z,11.02
2022-11-20T21:31:28.498Z,11.04
2022-11-20T21:33:56.859Z,11.07
2022-11-20T21:36:25.882Z,11.06
2022-11-20T21:38:54.578Z,11.09
2022-11-20T21:41:24.034Z,11.11
2022-11-20T21:44:23.686Z,11.08
2022-11-20T21:46:40.632Z,11.09
2022-11-20T21:49:08.565Z,11.19
2022-11-20T21:51:36.495Z,11.14
2022-11-20T21:54:04.564Z,11.14
2022-11-20T21:56:33.893Z,11.21
2022-11-20T21:59:01.789Z,11.24
2022-11-20T22:01:30.732Z,11.31
2022-11-20T22:03:59.415Z,11.31
2022-11-20T22:06:28.005Z,11.30
2022-11-20T22:08:55.943Z,11.34
2022-11-20T22:11:23.926Z,11.30
2022-11-20T22:14:10.787Z,11.27
2022-11-20T22:16:38.822Z,11.26
2022-11-20T22:19:06.887Z,11.24
2022-11-20T22:21:35.112Z,11.24
2022-11-20T22:24:03.146Z,11.28
2022-11-20T22:26:33.958Z,11.29
2022-11-20T22:29:06.709Z,11.32
2022-11-20T22:31:34.660Z,11.38
2022-11-20T22:34:03.081Z,11.44
2022-11-20T22:36:31.737Z,11.49
2022-11-20T22:38:59.741Z,11.53
2022-11-20T22:41:28.280Z,11.56
2022-11-20T22:43:56.813Z,11.64
2022-11-20T22:46:26.425Z,11.67
2022-11-20T22:48:55.021Z,11.73
2022-11-20T22:51:24.368Z,11.69
2022-11-20T22:53:52.457Z,11.72
2022-11-20T22:56:20.444Z,11.70
2022-11-20T22:58:48.903Z,11.70
2022-11-20T23:01:17.655Z,11.70
2022-11-20T23:03:48.317Z,11.70
2022-11-20T23:06:16.876Z,11.67
2022-11-20T23:08:44.843Z,11.60
2022-11-20T23:11:13.975Z,11.61
2022-11-20T23:13:42.038Z,11.65
2022-11-20T23:16:10.898Z,11.60
2022-11-20T23:18:38.871Z,11.62
2022-11-20T23:21:08.310Z,11.60
2022-11-20T23:23:36.261Z,11.55
2022-11-20T23:26:04.287Z,11.54
2022-11-20T23:28:32.257Z,11.55
2022-11-20T23:31:00.871Z,11.51
2022-11-20T23:33:28.779Z,11.49
2022-11-20T23:35:56.729Z,11.48
2022-11-20T23:38:26.041Z,11.48
2022-11-20T23:40:53.981Z,11.48
2022-11-20T23:43:22.437Z,11.53
2022-11-20T23:45:51.112Z,11.55
2022-11-20T23:48:19.144Z,11.59
2022-11-20T23:50:47.148Z,11.66
2022-11-20T23:53:15.336Z,11.69
2022-11-20T23:55:47.032Z,11.65
2022-11-20T23:58:15.015Z,11.66
